Time;durP1;ratioP1;P1;durP2;ratioP2;P2;SDS_P1;SDS_P2;PMS_P1;PMS_P2;Temp;Humidity;BMP_temperature;BMP_pressure;BME280_temperature;BME280_humidity;BME280_pressure;Samples;Min_cycle;Max_cycle;Signal;HPM_P1;HPM_P2
2023/01/09 00:00:42;;;;;;;5.88;1.80;;;7.70;99.90;;;;;;5050917;28;20269;-63
2023/01/09 00:03:07;;;;;;;3.70;1.33;;;7.70;99.90;;;;;;5047160;28;20400;-62
2023/01/09 00:05:33;;;;;;;4.78;1.70;;;7.80;99.90;;;;;;5031184;28;20055;-63
2023/01/09 00:07:58;;;;;;;5.28;1.60;;;7.80;99.90;;;;;;5045898;28;20051;-61
2023/01/09 00:10:24;;;;;;;3.83;1.45;;;7.90;99.90;;;;;;5040009;28;20118;-61
2023/01/09 00:12:50;;;;;;;4.82;1.48;;;7.80;99.90;;;;;;5046911;28;20039;-62
2023/01/09 00:15:16;;;;;;;4.57;1.40;;;7.90;99.90;;;;;;5043711;28;20091;-63
2023/01/09 00:17:41;;;;;;;2.35;1.20;;;7.90;99.90;;;;;;5046859;28;20043;-63
2023/01/09 00:20:08;;;;;;;2.63;1.10;;;7.80;99.90;;;;;;5021744;28;20280;-61
2023/01/09 00:22:35;;;;;;;2.15;0.95;;;7.80;99.90;;;;;;5037645;28;20036;-62
2023/01/09 00:25:00;;;;;;;1.17;0.80;;;7.80;99.90;;;;;;5046575;28;20128;-63
2023/01/09 00:27:31;;;;;;;0.75;0.68;;;7.70;99.90;;;;;;5031563;28;20129;-61
2023/01/09 00:29:57;;;;;;;1.30;0.80;;;7.60;99.90;;;;;;5040404;28;20075;-62
2023/01/09 00:32:22;;;;;;;1.25;0.82;;;7.60;99.90;;;;;;5022504;28;20065;-61
2023/01/09 00:34:48;;;;;;;1.30;0.82;;;7.50;99.90;;;;;;5045029;28;20033;-63
2023/01/09 00:37:14;;;;;;;3.20;0.70;;;7.50;99.90;;;;;;5047769;28;20051;-61
2023/01/09 00:39:40;;;;;;;3.67;0.63;;;7.40;99.90;;;;;;5025465;28;20120;-62
2023/01/09 00:42:10;;;;;;;1.52;0.70;;;7.40;99.90;;;;;;5034884;28;20488;-61
2023/01/09 00:44:42;;;;;;;1.90;0.77;;;7.40;99.90;;;;;;5042928;28;20033;-62
2023/01/09 00:47:22;;;;;;;4.57;0.70;;;7.30;99.90;;;;;;5024459;28;20484;-62
2023/01/09 00:49:49;;;;;;;2.67;0.90;;;7.30;99.90;;;;;;5042497;28;20068;-62
2023/01/09 00:52:15;;;;;;;2.67;1.15;;;7.30;99.90;;;;;;5040021;28;20075;-61
2023/01/09 00:54:42;;;;;;;3.50;1.00;;;7.30;99.90;;;;;;5044548;28;20074;-63
2023/01/09 00:57:11;;;;;;;4.28;1.20;;;7.30;99.90;;;;;;5046027;28;20047;-61
2023/01/09 00:59:37;;;;;;;2.85;1.23;;;7.30;99.90;;;;;;5039744;28;20115;-63
2023/01/09 01:02:03;;;;;;;2.75;1.55;;;7.30;99.90;;;;;;5046819;28;20037;-63
2023/01/09 01:09:56;;;;;;;2.63;1.48;;;7.20;99.90;;;;;;5044935;28;20284;-61
2023/01/09 01:12:22;;;;;;;6.47;1.60;;;7.30;99.90;;;;;;5041778;28;20033;-61
2023/01/09 01:14:48;;;;;;;3.70;1.80;;;7.30;99.90;;;;;;5044036;28;20116;-63
2023/01/09 01:17:13;;;;;;;5.18;1.88;;;7.30;99.90;;;;;;5031001;28;20478;-62
2023/01/09 01:19:39;;;;;;;5.18;1.77;;;7.30;99.90;;;;;;5049179;28;20076;-61
2023/01/09 01:22:05;;;;;;;3.70;1.55;;;7.30;99.90;;;;;;5027729;28;20041;-61
2023/01/09 01:24:30;;;;;;;5.95;2.20;;;7.30;99.90;;;;;;5011832;28;1075216;-61
2023/01/09 01:26:56;;;;;;;6.60;2.00;;;7.30;99.90;;;;;;5049566;28;20056;-61
2023/01/09 01:29:22;;;;;;;4.30;1.90;;;7.30;99.90;;;;;;5045742;28;20037;-62
2023/01/09 01:31:47;;;;;;;3.70;1.98;;;7.30;99.90;;;;;;5021930;28;20037;-61
2023/01/09 01:34:13;;;;;;;5.50;2.10;;;7.30;99.90;;;;;;5041264;28;20116;-61
2023/01/09 01:36:38;;;;;;;7.15;2.05;;;7.20;99.90;;;;;;5040615;28;20087;-61
2023/01/09 01:39:04;;;;;;;5.57;2.03;;;7.30;99.90;;;;;;5035306;28;20040;-62
2023/01/09 01:41:30;;;;;;;6.35;2.15;;;7.20;99.90;;;;;;5040873;28;20037;-66
2023/01/09 01:44:02;;;;;;;6.57;1.88;;;7.20;99.90;;;;;;5033660;28;20064;-61
2023/01/09 01:46:29;;;;;;;5.72;2.30;;;7.20;99.90;;;;;;5034145;28;20033;-61
2023/01/09 01:49:12;;;;;;;5.57;2.00;;;7.20;99.90;;;;;;5034179;28;20407;-61
2023/01/09 01:51:45;;;;;;;6.63;2.17;;;7.20;99.90;;;;;;5042675;28;20033;-65
2023/01/09 01:54:16;;;;;;;;;;;7.20;99.90;;;;;;5044749;28;20508;-62
2023/01/09 01:56:47;;;;;;;6.13;2.20;;;7.20;99.90;;;;;;5041536;28;19921;-61
2023/01/09 01:59:19;;;;;;;4.10;1.92;;;7.20;99.90;;;;;;5046136;28;20399;-62
2023/01/09 02:01:55;;;;;;;4.85;1.95;;;7.20;99.90;;;;;;5048633;28;20116;-64
2023/01/09 02:04:21;;;;;;;3.92;1.90;;;7.20;99.90;;;;;;5031081;28;20088;-64
2023/01/09 02:06:50;;;;;;;5.07;1.83;;;7.10;99.90;;;;;;5042623;28;20581;-64
2023/01/09 02:09:18;;;;;;;6.50;1.85;;;7.10;99.90;;;;;;5037549;28;20072;-62
2023/01/09 02:11:51;;;;;;;7.55;1.83;;;7.10;99.90;;;;;;5052170;28;20152;-63
2023/01/09 02:14:19;;;;;;;4.85;1.83;;;7.10;99.90;;;;;;5044165;28;20492;-61
2023/01/09 02:17:06;;;;;;;3.45;1.85;;;7.10;99.90;;;;;;5046584;28;20043;-65
2023/01/09 02:19:37;;;;;;;5.40;1.90;;;7.00;99.90;;;;;;5039462;28;20036;-63
2023/01/09 02:22:15;;;;;;;5.57;1.70;;;7.00;99.90;;;;;;5033961;28;20053;-63
2023/01/09 02:24:50;;;;;;;5.88;1.73;;;6.90;99.90;;;;;;5040295;28;20045;-63
2023/01/09 02:27:43;;;;;;;4.07;1.80;;;6.90;99.90;;;;;;5034500;28;20098;-64
2023/01/09 02:30:18;;;;;;;5.75;1.95;;;6.90;99.90;;;;;;5024548;28;20221;-62
2023/01/09 02:33:02;;;;;;;4.68;2.00;;;6.90;99.90;;;;;;5040006;28;20033;-63
2023/01/09 02:35:59;;;;;;;5.57;2.20;;;6.90;99.90;;;;;;5022514;28;20040;-66
2023/01/09 02:38:36;;;;;;;3.90;1.80;;;6.80;99.90;;;;;;5052569;28;20064;-62
2023/01/09 02:41:23;;;;;;;5.40;2.25;;;6.80;99.90;;;;;;5027436;28;20045;-62
2023/01/09 02:44:19;;;;;;;11.00;2.22;;;6.80;99.90;;;;;;5043840;28;20041;-62
2023/01/09 02:46:44;;;;;;;7.18;2.10;;;6.70;99.90;;;;;;5040142;28;20412;-64
2023/01/09 02:49:12;;;;;;;6.57;2.40;;;6.70;99.90;;;;;;5049362;28;20033;-63
2023/01/09 02:51:52;;;;;;;5.82;2.20;;;6.60;99.90;;;;;;5044145;28;20075;-62
2023/01/09 02:54:47;;;;;;;4.95;2.05;;;6.60;99.90;;;;;;5023980;28;20544;-62
2023/01/09 02:57:30;;;;;;;5.80;2.10;;;6.50;99.90;;;;;;5029974;28;20045;-62
2023/01/09 03:00:03;;;;;;;6.07;2.15;;;6.50;99.90;;;;;;5030296;28;20060;-65
2023/01/09 03:02:47;;;;;;;5.13;2.17;;;6.50;99.90;;;;;;5052082;28;20036;-62
2023/01/09 03:05:36;;;;;;;4.70;1.92;;;6.40;99.90;;;;;;5038047;28;20037;-64
2023/01/09 03:08:05;;;;;;;7.32;2.72;;;6.40;99.90;;;;;;5026626;28;20569;-62
2023/01/09 03:10:50;;;;;;;8.77;2.50;;;6.40;99.90;;;;;;5046073;28;20033;-62
2023/01/09 03:13:18;;;;;;;6.43;2.35;;;6.30;99.90;;;;;;5020132;28;20573;-63
2023/01/09 03:15:48;;;;;;;5.40;2.60;;;6.30;99.90;;;;;;5040667;28;20369;-62
2023/01/09 03:18:16;;;;;;;7.78;2.80;;;6.20;99.90;;;;;;5043156;28;20029;-62
2023/01/09 03:20:43;;;;;;;6.78;2.95;;;6.20;99.90;;;;;;5050565;28;20133;-63
2023/01/09 03:23:09;;;;;;;7.47;3.35;;;6.20;99.90;;;;;;5034166;28;20037;-64
2023/01/09 03:25:34;;;;;;;6.80;3.25;;;6.20;99.90;;;;;;5036461;28;20080;-61
2023/01/09 03:28:06;;;;;;;4.25;2.78;;;6.20;99.90;;;;;;5042683;28;20033;-61
2023/01/09 03:30:33;;;;;;;6.85;3.00;;;6.20;99.90;;;;;;5049125;28;20075;-61
2023/01/09 03:32:59;;;;;;;9.52;4.13;;;6.20;99.90;;;;;;5033006;28;20075;-64
2023/01/09 03:35:25;;;;;;;8.68;3.28;;;6.10;99.90;;;;;;5023959;28;20033;-62
2023/01/09 03:37:51;;;;;;;6.40;3.30;;;6.10;99.90;;;;;;5050898;28;20037;-64
2023/01/09 03:40:18;;;;;;;7.68;3.80;;;6.10;99.90;;;;;;5028499;28;20033;-61
2023/01/09 03:42:43;;;;;;;7.18;3.50;;;6.10;99.90;;;;;;5047811;28;20068;-64
2023/01/09 03:45:09;;;;;;;6.97;3.53;;;6.00;99.90;;;;;;5039988;28;20060;-65
2023/01/09 03:47:35;;;;;;;12.88;3.92;;;6.00;99.90;;;;;;5034831;28;20029;-62
2023/01/09 03:50:01;;;;;;;8.40;4.22;;;6.00;99.90;;;;;;5035784;28;20530;-62
2023/01/09 03:52:26;;;;;;;8.52;4.47;;;6.00;99.90;;;;;;5045013;28;20404;-62
2023/01/09 03:54:52;;;;;;;9.23;4.53;;;5.90;99.90;;;;;;5027490;28;20491;-63
2023/01/09 03:57:18;;;;;;;8.55;4.65;;;5.90;99.90;;;;;;5046505;28;20045;-65
2023/01/09 03:59:43;;;;;;;8.77;4.43;;;5.90;99.90;;;;;;5024053;28;20044;-62
2023/01/09 04:02:09;;;;;;;9.40;5.40;;;5.90;99.90;;;;;;5049203;28;20503;-62
2023/01/09 04:04:34;;;;;;;8.60;4.82;;;5.90;99.90;;;;;;5050320;28;20040;-62
2023/01/09 04:07:00;;;;;;;11.60;5.90;;;5.90;99.90;;;;;;5018805;28;20484;-63
2023/01/09 04:09:26;;;;;;;10.68;6.07;;;5.80;99.90;;;;;;5043643;28;20033;-64
2023/01/09 04:11:51;;;;;;;10.30;6.07;;;5.80;99.90;;;;;;5027038;28;20073;-62
2023/01/09 04:14:17;;;;;;;10.52;6.15;;;5.80;99.90;;;;;;5049646;28;20036;-63
2023/01/09 04:16:42;;;;;;;12.43;7.18;;;5.80;99.90;;;;;;5035138;28;20099;-62
2023/01/09 04:19:08;;;;;;;12.65;7.38;;;5.80;99.90;;;;;;5046934;28;20068;-62
2023/01/09 04:21:33;;;;;;;14.20;7.13;;;5.80;99.90;;;;;;5039202;28;20052;-63
2023/01/09 04:23:59;;;;;;;13.68;7.68;;;5.70;99.90;;;;;;5027311;28;20111;-62
2023/01/09 04:26:25;;;;;;;14.52;8.40;;;5.70;99.90;;;;;;5046682;28;20391;-62
2023/01/09 04:28:50;;;;;;;14.60;8.27;;;5.70;99.90;;;;;;5042102;28;20439;-65
2023/01/09 04:31:16;;;;;;;14.38;8.70;;;5.70;99.90;;;;;;5049186;28;20037;-63
2023/01/09 04:33:42;;;;;;;16.05;8.88;;;5.70;99.90;;;;;;5044305;28;20036;-62
2023/01/09 04:36:08;;;;;;;16.00;9.43;;;5.70;99.90;;;;;;5046771;28;20037;-63
2023/01/09 04:38:33;;;;;;;14.82;9.27;;;5.70;99.90;;;;;;5037273;28;20497;-63
2023/01/09 04:40:59;;;;;;;18.50;9.80;;;5.60;99.90;;;;;;5038067;28;20044;-65
2023/01/09 04:43:24;;;;;;;16.58;9.85;;;5.70;99.90;;;;;;5049877;28;20582;-61
2023/01/09 04:45:50;;;;;;;14.02;9.05;;;5.60;99.90;;;;;;5048905;28;20476;-62
2023/01/09 04:48:16;;;;;;;14.70;9.48;;;5.60;99.90;;;;;;5045559;28;20044;-62
2023/01/09 04:50:41;;;;;;;16.13;10.43;;;5.60;99.90;;;;;;5042865;28;20527;-64
2023/01/09 04:53:07;;;;;;;17.05;9.93;;;5.60;99.90;;;;;;5025840;28;20480;-62
2023/01/09 04:55:33;;;;;;;16.50;10.02;;;5.60;99.90;;;;;;5045211;28;20030;-61
2023/01/09 04:57:58;;;;;;;16.40;10.40;;;5.60;99.90;;;;;;5023515;28;20037;-60
2023/01/09 05:00:24;;;;;;;15.63;10.15;;;5.60;99.90;;;;;;5045752;28;20108;-62
2023/01/09 05:02:50;;;;;;;15.25;9.75;;;5.60;99.90;;;;;;5041912;28;20519;-62
2023/01/09 05:05:15;;;;;;;17.45;9.93;;;5.60;99.90;;;;;;5027237;28;20551;-65
2023/01/09 05:07:41;;;;;;;15.00;9.27;;;5.50;99.90;;;;;;5041003;28;20036;-62
2023/01/09 05:10:08;;;;;;;16.30;9.48;;;5.50;99.90;;;;;;5037281;28;20492;-62
2023/01/09 05:12:35;;;;;;;16.05;9.20;;;5.50;99.90;;;;;;5030523;28;20047;-63
2023/01/09 05:15:01;;;;;;;15.25;9.18;;;5.50;99.90;;;;;;5041206;28;20037;-65
2023/01/09 05:17:27;;;;;;;16.23;9.15;;;5.50;99.90;;;;;;5031378;28;20480;-61
2023/01/09 05:19:53;;;;;;;15.38;9.23;;;5.50;99.90;;;;;;5032249;28;20048;-62
2023/01/09 05:22:18;;;;;;;14.07;9.27;;;5.50;99.90;;;;;;5026176;28;20426;-63
2023/01/09 05:24:44;;;;;;;14.93;8.55;;;5.50;99.90;;;;;;5045221;28;20034;-66
2023/01/09 05:27:10;;;;;;;14.73;8.38;;;5.40;99.90;;;;;;5016849;28;20430;-62
2023/01/09 05:29:35;;;;;;;13.45;8.43;;;5.50;99.90;;;;;;5044709;28;20040;-64
2023/01/09 05:32:01;;;;;;;12.80;8.38;;;5.40;99.90;;;;;;5053168;28;20036;-63
2023/01/09 05:34:26;;;;;;;13.05;7.85;;;5.40;99.90;;;;;;5049197;28;20030;-62
2023/01/09 05:36:52;;;;;;;14.57;8.55;;;5.50;99.90;;;;;;5015085;28;20053;-64
2023/01/09 05:39:18;;;;;;;17.80;8.57;;;5.40;99.90;;;;;;5044788;28;20305;-64
2023/01/09 05:41:43;;;;;;;13.45;8.75;;;5.50;99.90;;;;;;5047163;28;20553;-64
2023/01/09 05:44:09;;;;;;;15.80;8.48;;;5.50;99.90;;;;;;5044035;28;20056;-64
2023/01/09 05:46:34;;;;;;;17.48;7.97;;;5.50;99.90;;;;;;5052042;28;20128;-64
2023/01/09 05:49:00;;;;;;;13.98;7.88;;;5.50;99.90;;;;;;5043133;28;20365;-64
2023/01/09 05:51:26;;;;;;;15.88;8.50;;;5.50;99.90;;;;;;5049037;28;20033;-64
2023/01/09 05:53:51;;;;;;;13.23;7.80;;;5.50;99.90;;;;;;5043775;28;20041;-63
2023/01/09 05:56:17;;;;;;;20.52;7.43;;;5.60;99.90;;;;;;5034203;28;20072;-62
2023/01/09 05:58:42;;;;;;;14.65;8.00;;;5.60;99.90;;;;;;5030528;28;20037;-64
2023/01/09 06:01:08;;;;;;;15.75;7.15;;;5.60;99.90;;;;;;5049214;28;20065;-64
2023/01/09 06:03:34;;;;;;;16.50;7.70;;;5.60;99.90;;;;;;5020313;28;20042;-63
2023/01/09 06:05:59;;;;;;;12.88;7.35;;;5.60;99.90;;;;;;5026735;28;20037;-62
2023/01/09 06:08:25;;;;;;;15.00;7.13;;;5.60;99.90;;;;;;5046428;28;20036;-64
2023/01/09 06:10:51;;;;;;;13.55;7.18;;;5.70;99.90;;;;;;5039018;28;20047;-64
2023/01/09 06:13:16;;;;;;;13.32;7.13;;;5.60;99.90;;;;;;5050282;28;20033;-64
2023/01/09 06:15:42;;;;;;;12.05;6.53;;;5.70;99.90;;;;;;5045214;28;20495;-64
2023/01/09 06:18:08;;;;;;;12.45;6.05;;;5.70;99.90;;;;;;5034679;28;20438;-63
2023/01/09 06:20:33;;;;;;;10.82;6.40;;;5.70;99.90;;;;;;5041397;28;20128;-64
2023/01/09 06:22:59;;;;;;;13.02;6.57;;;5.70;99.90;;;;;;5040288;28;20111;-64
2023/01/09 06:25:25;;;;;;;12.77;5.68;;;5.70;99.90;;;;;;5051318;28;20041;-64
2023/01/09 06:27:51;;;;;;;11.20;5.65;;;5.70;99.90;;;;;;5038187;28;20037;-64
2023/01/09 06:30:17;;;;;;;12.93;5.65;;;5.70;99.90;;;;;;5052525;28;20393;-64
2023/01/09 06:32:43;;;;;;;12.27;5.47;;;5.70;99.90;;;;;;5036601;28;20037;-64
2023/01/09 06:35:09;;;;;;;10.48;5.55;;;5.70;99.90;;;;;;5042176;28;20056;-63
2023/01/09 06:37:35;;;;;;;12.43;6.13;;;5.70;99.90;;;;;;5042257;28;20065;-64
2023/01/09 06:40:01;;;;;;;9.98;5.60;;;5.70;99.90;;;;;;5044145;28;20128;-64
2023/01/09 06:42:26;;;;;;;12.50;5.45;;;5.80;99.90;;;;;;5048382;28;20044;-64
2023/01/09 06:44:52;;;;;;;10.93;5.90;;;5.80;99.90;;;;;;5049712;28;20055;-64
2023/01/09 06:47:18;;;;;;;10.15;5.43;;;5.80;99.90;;;;;;5050369;28;20021;-65
2023/01/09 06:49:43;;;;;;;12.98;5.65;;;5.80;99.90;;;;;;5043560;28;20159;-64
2023/01/09 06:52:09;;;;;;;11.85;5.38;;;5.80;99.90;;;;;;5019481;28;20120;-64
2023/01/09 06:54:34;;;;;;;11.57;5.15;;;5.80;99.90;;;;;;5022041;28;20584;-64
2023/01/09 06:57:00;;;;;;;9.45;5.20;;;5.80;99.90;;;;;;5041969;28;20195;-64
2023/01/09 06:59:26;;;;;;;9.45;5.20;;;5.80;99.90;;;;;;5027800;28;20046;-65
2023/01/09 07:01:52;;;;;;;11.02;4.95;;;5.80;99.90;;;;;;5050156;28;20055;-65
2023/01/09 07:04:17;;;;;;;10.48;5.13;;;5.80;99.90;;;;;;5047653;28;20037;-65
2023/01/09 07:06:46;;;;;;;10.15;5.20;;;5.80;99.90;;;;;;5043523;28;20059;-63
2023/01/09 07:09:12;;;;;;;8.93;4.50;;;5.80;99.90;;;;;;5041617;28;20030;-64
2023/01/09 07:11:39;;;;;;;9.98;4.78;;;5.80;99.90;;;;;;5047518;28;20515;-63
2023/01/09 07:14:04;;;;;;;10.20;4.65;;;5.80;99.90;;;;;;5030789;28;20057;-64
2023/01/09 07:16:30;;;;;;;9.07;4.35;;;5.80;99.90;;;;;;5044520;28;20074;-64
2023/01/09 07:18:56;;;;;;;10.70;4.80;;;5.80;99.90;;;;;;5030751;28;20499;-63
2023/01/09 07:21:21;;;;;;;10.30;4.55;;;5.80;99.90;;;;;;5045615;28;20097;-64
2023/01/09 07:23:47;;;;;;;10.50;4.50;;;5.80;99.90;;;;;;5048144;28;20496;-65
2023/01/09 07:26:13;;;;;;;8.57;4.18;;;5.80;99.90;;;;;;5043129;28;20044;-64
2023/01/09 07:28:38;;;;;;;8.48;4.10;;;5.80;99.90;;;;;;5036377;28;20022;-63
2023/01/09 07:31:06;;;;;;;10.10;4.15;;;5.80;99.90;;;;;;5030574;28;20037;-63
2023/01/09 07:33:32;;;;;;;10.30;4.10;;;5.80;99.90;;;;;;5041573;28;20044;-63
2023/01/09 07:35:58;;;;;;;11.50;4.00;;;5.80;99.90;;;;;;5043213;28;20064;-63
2023/01/09 07:38:23;;;;;;;7.88;3.90;;;5.90;99.90;;;;;;5022940;28;20069;-63
2023/01/09 07:40:49;;;;;;;9.20;3.78;;;5.80;99.90;;;;;;5019597;28;20033;-64
2023/01/09 07:43:14;;;;;;;10.43;4.40;;;5.90;99.90;;;;;;5022789;28;20037;-63
2023/01/09 07:45:40;;;;;;;10.90;3.97;;;5.90;99.90;;;;;;5013345;28;20025;-63
2023/01/09 07:48:06;;;;;;;8.00;4.00;;;5.90;99.90;;;;;;5030229;28;20095;-64
2023/01/09 07:50:31;;;;;;;6.15;3.03;;;5.90;99.90;;;;;;5033911;28;20700;-64
2023/01/09 07:52:57;;;;;;;7.47;3.63;;;5.90;99.90;;;;;;5045620;28;20041;-64
2023/01/09 07:55:23;;;;;;;9.63;3.53;;;5.90;99.90;;;;;;5022536;28;20099;-63
2023/01/09 07:57:49;;;;;;;11.13;3.83;;;5.90;99.90;;;;;;5044832;28;20052;-64
2023/01/09 08:00:15;;;;;;;7.80;3.20;;;5.90;99.90;;;;;;5050154;28;20095;-64
2023/01/09 08:02:41;;;;;;;9.18;3.22;;;6.00;99.90;;;;;;5043319;28;20034;-63
2023/01/09 08:05:08;;;;;;;8.93;3.13;;;6.00;99.90;;;;;;5047611;28;20041;-63
2023/01/09 08:07:33;;;;;;;7.55;3.33;;;6.00;99.90;;;;;;5048614;28;20079;-63
2023/01/09 08:09:59;;;;;;;13.07;3.58;;;6.00;99.90;;;;;;5042572;28;20072;-64
2023/01/09 08:12:25;;;;;;;9.20;3.13;;;6.00;99.90;;;;;;5040741;28;20033;-64
2023/01/09 08:14:50;;;;;;;9.20;2.95;;;6.00;99.90;;;;;;5025046;28;20496;-63
2023/01/09 08:17:16;;;;;;;9.00;3.20;;;6.00;99.90;;;;;;5050627;28;20029;-64
2023/01/09 08:19:42;;;;;;;11.00;3.40;;;6.00;99.90;;;;;;5033359;28;20121;-64
2023/01/09 08:22:09;;;;;;;8.60;3.03;;;6.10;99.90;;;;;;5027645;28;20080;-64
2023/01/09 08:24:35;;;;;;;8.82;2.95;;;6.00;99.90;;;;;;5031350;28;20440;-64
2023/01/09 08:27:01;;;;;;;9.30;2.80;;;6.10;99.90;;;;;;5015795;28;20075;-64
2023/01/09 08:29:29;;;;;;;8.23;3.53;;;6.10;99.90;;;;;;5046951;28;20032;-64
2023/01/09 08:31:55;;;;;;;9.65;3.45;;;6.20;99.90;;;;;;5042207;28;20044;-64
2023/01/09 08:34:20;;;;;;;11.98;3.28;;;6.10;99.90;;;;;;5038482;28;20029;-65
2023/01/09 08:36:46;;;;;;;8.00;3.00;;;6.10;99.90;;;;;;5032721;28;20487;-63
2023/01/09 08:39:12;;;;;;;9.90;3.20;;;6.20;99.90;;;;;;5044842;28;20044;-64
2023/01/09 08:47:06;;;;;;;7.97;3.22;;;6.20;99.90;;;;;;5050391;28;20044;-64
2023/01/09 08:49:37;;;;;;;9.50;3.35;;;6.20;99.90;;;;;;5050532;28;20037;-64
2023/01/09 08:52:04;;;;;;;8.43;3.50;;;6.30;99.90;;;;;;5022011;28;20044;-64
2023/01/09 08:54:30;;;;;;;11.30;3.60;;;6.30;99.90;;;;;;5038714;28;20044;-64
2023/01/09 08:56:55;;;;;;;7.60;3.45;;;6.30;99.90;;;;;;5028664;28;20048;-64
2023/01/09 08:59:21;;;;;;;14.20;3.75;;;6.30;99.90;;;;;;5010025;28;20060;-64
2023/01/09 09:01:47;;;;;;;9.32;4.15;;;6.30;99.90;;;;;;5040508;28;20048;-64
2023/01/09 09:04:12;;;;;;;11.98;3.63;;;6.30;99.90;;;;;;5044899;28;20033;-64
2023/01/09 09:06:38;;;;;;;9.48;3.20;;;6.30;99.90;;;;;;5040836;28;20045;-63
2023/01/09 09:09:05;;;;;;;12.50;3.80;;;6.30;99.90;;;;;;5029053;28;20049;-64
2023/01/09 09:11:34;;;;;;;8.65;3.65;;;6.40;99.90;;;;;;5017462;28;20033;-64
2023/01/09 09:15:11;;;;;;;10.38;3.90;;;6.40;99.90;;;;;;5047633;28;20087;-64
2023/01/09 09:16:46;;;;;;;11.15;3.45;;;6.40;99.90;;;;;;5018720;28;20056;-64
2023/01/09 09:19:12;;;;;;;13.98;3.53;;;6.40;99.90;;;;;;5026463;28;20552;-64
2023/01/09 09:21:37;;;;;;;10.27;3.13;;;6.40;99.90;;;;;;5032674;28;20049;-65
2023/01/09 09:24:03;;;;;;;12.25;3.47;;;6.40;99.90;;;;;;5037579;28;20068;-64
2023/01/09 09:26:28;;;;;;;10.77;3.05;;;6.40;99.90;;;;;;5032324;28;20043;-64
2023/01/09 09:28:54;;;;;;;9.38;3.10;;;6.50;99.90;;;;;;5023785;28;20123;-64
2023/01/09 09:31:19;;;;;;;10.55;3.17;;;6.50;99.90;;;;;;5028512;28;20048;-64
2023/01/09 09:33:45;;;;;;;10.73;3.00;;;6.50;99.90;;;;;;5034320;28;20400;-63
2023/01/09 09:36:11;;;;;;;10.10;3.10;;;6.50;99.90;;;;;;5023696;28;20047;-64
2023/01/09 09:38:36;;;;;;;8.30;3.20;;;6.50;99.90;;;;;;5038332;28;20368;-64
2023/01/09 09:44:41;;;;;;;10.95;3.45;;;6.50;99.90;;;;;;5047044;28;20047;-64
2023/01/09 09:47:29;;;;;;;9.93;3.28;;;6.60;99.90;;;;;;5051405;28;20466;-64
2023/01/09 09:50:28;;;;;;;7.32;3.03;;;6.60;99.90;;;;;;5048027;28;20148;-64
2023/01/09 09:53:16;;;;;;;14.80;3.17;;;6.60;99.90;;;;;;5022752;28;20045;-63
2023/01/09 09:55:45;;;;;;;9.27;3.35;;;6.70;99.90;;;;;;5042675;28;20079;-64
2023/01/09 09:58:35;;;;;;;10.80;3.25;;;6.70;99.90;;;;;;5048801;28;20072;-64
2023/01/09 10:01:01;;;;;;;7.43;3.00;;;6.70;99.90;;;;;;5043728;28;20076;-63
2023/01/09 10:03:31;;;;;;;10.95;3.17;;;6.70;99.90;;;;;;5042413;28;20025;-63
2023/01/09 10:05:59;;;;;;;10.30;2.97;;;6.70;99.90;;;;;;5040307;28;20120;-64
2023/01/09 10:09:04;;;;;;;10.45;4.13;;;6.70;99.90;;;;;;5044894;28;20033;-64
2023/01/09 10:11:43;;;;;;;7.43;3.10;;;6.70;99.90;;;;;;5012619;28;20479;-64
2023/01/09 10:14:10;;;;;;;8.88;3.28;;;6.70;99.90;;;;;;5044357;28;20041;-63
2023/01/09 10:16:46;;;;;;;8.57;3.30;;;6.70;99.90;;;;;;5028640;28;20048;-64
2023/01/09 10:19:18;;;;;;;9.93;3.13;;;6.70;99.90;;;;;;5051438;28;20376;-64
2023/01/09 10:21:46;;;;;;;5.95;3.45;;;6.70;99.90;;;;;;5044531;28;20036;-64
2023/01/09 10:24:27;;;;;;;7.70;3.47;;;6.70;99.90;;;;;;5046989;28;20047;-64
2023/01/09 10:26:53;;;;;;;7.28;3.53;;;6.70;99.90;;;;;;5032505;28;20052;-63
2023/01/09 10:29:39;;;;;;;10.57;3.80;;;6.70;99.90;;;;;;5035788;28;20581;-64
2023/01/09 10:32:37;;;;;;;8.20;3.60;;;6.70;99.90;;;;;;5045768;28;20045;-63
2023/01/09 10:35:38;;;;;;;9.48;4.00;;;6.70;99.90;;;;;;5047847;28;20708;-64
2023/01/09 10:38:07;;;;;;;9.13;3.88;;;6.80;99.90;;;;;;5019122;28;20064;-64
2023/01/09 10:41:01;;;;;;;10.07;3.95;;;6.80;99.90;;;;;;5048243;28;20083;-63
2023/01/09 10:43:37;;;;;;;7.38;4.15;;;6.80;99.90;;;;;;5039024;28;20085;-64
2023/01/09 10:46:17;;;;;;;7.82;4.03;;;6.80;99.90;;;;;;5054967;28;20029;-65
2023/01/09 10:48:54;;;;;;;6.95;3.90;;;6.80;99.90;;;;;;5029065;28;20045;-64
2023/01/09 10:51:24;;;;;;;8.07;4.00;;;6.80;99.90;;;;;;5037231;28;20400;-64
2023/01/09 10:53:52;;;;;;;9.70;4.00;;;6.80;99.90;;;;;;5033335;28;20051;-63
2023/01/09 10:56:32;;;;;;;8.05;4.13;;;6.80;99.90;;;;;;5042720;28;20508;-64
2023/01/09 10:58:58;;;;;;;7.70;4.03;;;6.80;99.90;;;;;;5032633;28;20045;-64
2023/01/09 11:01:32;;;;;;;9.32;3.90;;;6.80;99.90;;;;;;5034248;28;20041;-63
2023/01/09 11:04:00;;;;;;;9.25;4.75;;;6.80;99.90;;;;;;5035306;28;20048;-64
2023/01/09 11:06:36;;;;;;;9.18;4.45;;;6.90;99.90;;;;;;5057613;28;20124;-64
2023/01/09 11:09:03;;;;;;;11.15;5.07;;;6.90;99.90;;;;;;5035043;28;20124;-63
2023/01/09 11:11:39;;;;;;;10.57;4.80;;;6.90;99.90;;;;;;5049292;28;20032;-64
2023/01/09 11:14:29;;;;;;;8.73;5.15;;;6.80;99.90;;;;;;5053894;28;20055;-64
2023/01/09 11:17:04;;;;;;;11.18;5.53;;;6.90;99.90;;;;;;5053658;28;20434;-64
2023/01/09 11:19:32;;;;;;;9.70;5.20;;;6.90;99.90;;;;;;5025525;28;20030;-64
2023/01/09 11:22:16;;;;;;;13.40;5.88;;;6.90;99.90;;;;;;5047867;28;20041;-64
2023/01/09 11:24:43;;;;;;;12.40;6.43;;;6.90;99.90;;;;;;5024833;28;20045;-64
2023/01/09 11:27:11;;;;;;;10.48;6.10;;;7.00;99.90;;;;;;5048354;28;20128;-64
2023/01/09 11:29:38;;;;;;;14.63;6.95;;;6.90;99.90;;;;;;5032765;28;20484;-64
2023/01/09 11:32:03;;;;;;;16.10;7.15;;;7.00;99.90;;;;;;5051630;28;20044;-63
2023/01/09 11:34:32;;;;;;;13.68;7.70;;;7.00;99.90;;;;;;5023581;28;20041;-63
2023/01/09 11:37:07;;;;;;;14.13;7.72;;;7.00;99.90;;;;;;5018179;28;20106;-63
2023/01/09 11:39:36;;;;;;;15.30;7.85;;;7.00;99.90;;;;;;5036263;28;20124;-66
2023/01/09 11:42:05;;;;;;;14.93;7.90;;;7.10;99.90;;;;;;5049371;28;20036;-63
2023/01/09 11:44:31;;;;;;;14.30;8.45;;;7.10;99.90;;;;;;5050288;28;20527;-63
2023/01/09 11:46:58;;;;;;;17.70;8.63;;;7.10;99.90;;;;;;5037819;28;20368;-64
2023/01/09 11:49:29;;;;;;;19.05;9.30;;;7.20;99.90;;;;;;5044087;28;20056;-64
2023/01/09 11:52:19;;;;;;;15.90;8.95;;;7.20;99.90;;;;;;5027695;28;20045;-63
2023/01/09 11:54:54;;;;;;;17.58;8.63;;;7.20;99.90;;;;;;5029263;28;20365;-65
2023/01/09 11:57:21;;;;;;;16.70;9.65;;;7.30;99.90;;;;;;5038884;28;20510;-65
2023/01/09 11:59:47;;;;;;;15.55;8.55;;;7.30;99.90;;;;;;5036692;28;20045;-68
2023/01/09 12:02:24;;;;;;;15.65;9.20;;;7.40;99.90;;;;;;5041309;28;20522;-63
2023/01/09 12:05:01;;;;;;;15.30;8.57;;;7.40;99.90;;;;;;5032216;28;20040;-64
2023/01/09 12:07:34;;;;;;;15.18;8.68;;;7.40;99.90;;;;;;5046048;28;20029;-63
2023/01/09 12:10:21;;;;;;;20.05;9.57;;;7.40;99.90;;;;;;5046414;28;20048;-64
2023/01/09 12:12:56;;;;;;;17.80;8.90;;;7.40;99.90;;;;;;5034541;28;20044;-63
2023/01/09 12:15:47;;;;;;;15.48;8.60;;;7.40;99.90;;;;;;5030955;28;20049;-66
2023/01/09 12:18:48;;;;;;;15.57;9.82;;;7.40;99.90;;;;;;5041503;28;20506;-63
2023/01/09 12:21:19;;;;;;;19.13;9.65;;;7.50;99.90;;;;;;5045384;28;20049;-64
2023/01/09 12:24:16;;;;;;;18.00;9.50;;;7.50;99.90;;;;;;5043724;28;20044;-63
2023/01/09 12:27:00;;;;;;;19.08;9.60;;;7.50;99.90;;;;;;5043621;28;20654;-63
2023/01/09 12:29:44;;;;;;;18.10;9.43;;;7.40;99.90;;;;;;5040688;28;20044;-63
2023/01/09 12:32:55;;;;;;;15.20;9.73;;;7.50;99.90;;;;;;5018966;28;20033;-63
2023/01/09 12:35:32;;;;;;;16.67;9.07;;;7.50;99.90;;;;;;5023272;28;20052;-65
2023/01/09 12:38:15;;;;;;;18.50;9.68;;;7.60;99.90;;;;;;5026878;28;20050;-64
2023/01/09 12:41:21;;;;;;;16.60;9.00;;;7.60;99.90;;;;;;5032198;28;20048;-64
2023/01/09 12:43:59;;;;;;;13.95;8.60;;;7.60;99.90;;;;;;5030907;28;20051;-64
2023/01/09 12:46:39;;;;;;;19.20;8.48;;;7.70;99.90;;;;;;5050154;28;20051;-66
2023/01/09 12:49:34;;;;;;;15.13;8.23;;;7.70;99.90;;;;;;5033053;28;20331;-63
2023/01/09 12:52:27;;;;;;;16.23;7.95;;;7.70;99.90;;;;;;5002218;28;20053;-63
2023/01/09 12:54:56;;;;;;;;;;;7.70;99.90;;;;;;5025700;28;20045;-64
2023/01/09 12:57:34;;;;;;;16.08;8.10;;;7.60;99.90;;;;;;5047654;28;19921;-64
2023/01/09 13:00:24;;;;;;;20.17;8.32;;;7.70;99.90;;;;;;5050816;28;20049;-64
2023/01/09 13:03:09;;;;;;;16.65;8.50;;;7.70;99.90;;;;;;5041255;28;20041;-64
2023/01/09 13:05:41;;;;;;;18.10;8.27;;;7.60;99.90;;;;;;5016017;28;20044;-63
2023/01/09 13:08:23;;;;;;;17.73;8.30;;;7.70;99.90;;;;;;5042700;28;20037;-63
2023/01/09 13:10:52;;;;;;;13.32;6.88;;;7.70;99.90;;;;;;5043705;28;20037;-63
2023/01/09 13:13:31;;;;;;;18.40;7.55;;;7.70;99.90;;;;;;5036552;28;20033;-63
2023/01/09 13:16:04;;;;;;;14.02;6.20;;;7.70;99.90;;;;;;5020907;28;20080;-63
2023/01/09 13:18:39;;;;;;;16.90;6.20;;;7.70;99.90;;;;;;5050741;28;20032;-63
2023/01/09 13:21:06;;;;;;;13.80;5.38;;;7.70;99.90;;;;;;5041386;28;20034;-62
2023/01/09 13:23:57;;;;;;;15.20;5.38;;;7.70;99.90;;;;;;5041705;28;20041;-63